CheckWX is a tool to help pilots better visualize weather data.  It is not intended as a substitute for an official pre-flight weather briefing.

19:17:25 UTC

KLWT METAR
Lewistown Municipal Airport
Lewistown, Montana, USA
Current

23 mins ago

KLWT 261854Z AUTO 09013KT 10SM FEW030 BKN085 BKN120 13/07 A2999 RMK AO2 SLP143 T01280072
Observed
May-26 @ 18:54 UTC
Wind
  • 090° at 13 KTS
Visibility
10 SM
Flight Rules
VFR
Cloud Levels
  • Few at 3,000' AGL
  • Broken at 8,500' AGL
  • Broken at 12,000' AGL
Temperature
13°C / 55°F
Dewpoint
C / 45°F
Humidity
67%
Altimeter
29.99" Hg
Pressure
1015.62 hPa
Previous

1 hour ago

KLWT 261754Z AUTO 09009KT 10SM FEW041 BKN080 OVC100 13/07 A2999 RMK AO2 SLP144 60000 T01280067 10128 20094 53006
Observed
May-26 @ 17:54 UTC
Wind
  • 090° at 9 KTS
Visibility
10 SM
Flight Rules
VFR
Cloud Levels
  • Few at 4,100' AGL
  • Broken at 8,000' AGL
  • Overcast at 10,000' AGL
Temperature
13°C / 55°F
Dewpoint
C / 45°F
Humidity
67%
Altimeter
29.99" Hg
Pressure
1015.62 hPa
Previous

2 hours ago

KLWT 261654Z AUTO 09011KT 10SM OVC080 13/06 A2998 RMK AO2 LTG DSNT SW SLP137 T01280061
Observed
May-26 @ 16:54 UTC
Wind
  • 090° at 11 KTS
Visibility
10 SM
Flight Rules
VFR
Cloud Levels
  • Overcast at 8,000' AGL
Temperature
13°C / 55°F
Dewpoint
C / 43°F
Humidity
63%
Altimeter
29.98" Hg
Pressure
1015.22 hPa